Time;durP1;ratioP1;P1;durP2;ratioP2;P2;SDS_P1;SDS_P2;PMS_P1;PMS_P2;Temp;Humidity;BMP_temperature;BMP_pressure;BME280_temperature;BME280_humidity;BME280_pressure;Samples;Min_cycle;Max_cycle;Signal;HPM_P1;HPM_P2
2021/03/07 00:02:24;;;;;;;27.08;13.93;;;;;;;-0.27;92.39;102350.88;4910356;29;20495;-70
2021/03/07 00:04:50;;;;;;;26.40;13.85;;;;;;;-0.28;92.64;102353.50;4909601;29;20611;-70
2021/03/07 00:07:16;;;;;;;21.45;12.70;;;;;;;-0.31;92.64;102354.38;4906243;29;20093;-69
2021/03/07 00:09:41;;;;;;;22.15;12.55;;;;;;;-0.34;92.89;102351.72;4909676;29;20028;-70
2021/03/07 00:12:07;;;;;;;23.75;13.93;;;;;;;-0.35;93.01;102351.69;4907323;29;20469;-70
2021/03/07 00:14:32;;;;;;;26.55;13.10;;;;;;;-0.37;93.40;102351.69;4910680;29;20365;-70
2021/03/07 00:16:58;;;;;;;24.85;13.30;;;;;;;-0.39;93.48;102353.44;4908456;29;20563;-70
2021/03/07 00:19:23;;;;;;;23.65;12.55;;;;;;;-0.42;93.91;102349.00;4910443;29;20035;-70
2021/03/07 00:21:49;;;;;;;24.88;12.45;;;;;;;-0.43;94.04;102351.63;4910149;29;20036;-70
2021/03/07 00:24:14;;;;;;;26.38;13.27;;;;;;;-0.44;94.23;102349.91;4909401;29;20032;-70
2021/03/07 00:26:40;;;;;;;27.98;13.45;;;;;;;-0.47;94.58;102347.22;4911467;29;20486;-69
2021/03/07 00:29:05;;;;;;;24.20;13.00;;;;;;;-0.48;94.65;102345.44;4909825;29;20392;-70
2021/03/07 00:31:31;;;;;;;24.75;13.20;;;;;;;-0.50;94.48;102340.19;4910559;29;20048;-70
2021/03/07 00:33:56;;;;;;;30.92;15.10;;;;;;;-0.53;94.64;102344.53;4911587;29;20040;-70
2021/03/07 00:36:22;;;;;;;26.30;13.65;;;;;;;-0.56;94.88;102347.19;4911342;29;20032;-69
2021/03/07 00:38:47;;;;;;;22.80;12.05;;;;;;;-0.59;95.31;102341.88;4910310;29;20040;-70
2021/03/07 00:41:12;;;;;;;25.55;13.23;;;;;;;-0.62;95.46;102341.84;4912970;29;20050;-69
2021/03/07 00:43:38;;;;;;;19.25;11.55;;;;;;;-0.63;95.58;102345.34;4896981;29;20040;-70
2021/03/07 00:46:04;;;;;;;25.48;12.30;;;;;;;-0.66;95.54;102345.31;4909890;29;20551;-70
2021/03/07 00:48:33;;;;;;;23.13;11.90;;;;;;;-0.69;95.62;102342.69;4893524;29;20036;-69
2021/03/07 00:50:59;;;;;;;19.17;10.98;;;;;;;-0.70;95.58;102338.25;4908317;29;20036;-70
2021/03/07 00:53:24;;;;;;;20.88;12.55;;;;;;;-0.71;95.60;102341.78;4911383;29;20040;-70
2021/03/07 00:55:49;;;;;;;27.70;12.35;;;;;;;-0.75;95.56;102329.44;4913302;29;20044;-70
2021/03/07 00:58:15;;;;;;;24.08;12.10;;;;;;;-0.79;95.80;102338.19;4911770;29;20042;-70
2021/03/07 01:00:41;;;;;;;20.63;11.75;;;;;;;-0.82;96.19;102326.75;4912573;29;20080;-70
2021/03/07 01:03:06;;;;;;;23.25;12.25;;;;;;;-0.84;96.24;102341.66;4892237;29;20399;-70
2021/03/07 01:05:33;;;;;;;23.67;12.32;;;;;;;-0.86;96.50;102338.13;4911843;29;20059;-70
2021/03/07 01:07:59;;;;;;;22.25;12.18;;;;;;;-0.88;96.61;102337.25;4888808;29;20032;-70
2021/03/07 01:10:42;;;;;;;24.10;11.52;;;;;;;-0.90;96.64;102335.47;4912273;29;20035;-70
2021/03/07 01:13:11;;;;;;;25.48;11.57;;;;;;;-0.93;96.66;102327.53;4894759;29;20059;-70
2021/03/07 01:15:37;;;;;;;22.10;11.68;;;;;;;-0.95;96.75;102322.25;4911718;29;20179;-70
2021/03/07 01:18:04;;;;;;;21.98;12.13;;;;;;;-0.96;96.84;102325.75;4908847;29;20127;-70
2021/03/07 01:20:29;;;;;;;22.20;11.90;;;;;;;-0.97;97.16;102317.81;4912766;29;20044;-70
2021/03/07 01:22:56;;;;;;;21.27;11.73;;;;;;;-1.00;97.04;102315.19;4911131;29;20558;-70
2021/03/07 01:25:25;;;;;;;17.98;11.02;;;;;;;-1.01;97.17;102322.22;4912714;29;20036;-70
2021/03/07 01:27:50;;;;;;;23.52;11.50;;;;;;;-1.03;97.17;102315.16;4920372;29;20119;-70
2021/03/07 01:30:17;;;;;;;21.80;11.93;;;;;;;-1.06;97.26;102304.59;4924327;29;20118;-70
2021/03/07 01:32:43;;;;;;;17.98;11.27;;;;;;;-1.07;97.35;102301.06;4918881;29;20036;-70
2021/03/07 01:35:09;;;;;;;24.10;11.30;;;;;;;-1.07;97.32;102294.91;4911298;29;20031;-70
2021/03/07 01:37:34;;;;;;;22.60;11.95;;;;;;;-1.09;97.56;102292.25;4909521;29;20036;-70
2021/03/07 01:40:04;;;;;;;28.08;12.35;;;;;;;-1.11;97.61;102294.00;4910170;29;20710;-70
2021/03/07 01:42:29;;;;;;;24.48;12.50;;;;;;;-1.13;97.78;102290.47;4909360;29;20127;-70
2021/03/07 01:44:55;;;;;;;22.40;12.35;;;;;;;-1.14;97.70;102287.81;4893465;29;20458;-70
2021/03/07 01:47:30;;;;;;;26.33;11.73;;;;;;;-1.15;98.04;102280.78;4895355;29;20035;-70
2021/03/07 01:49:55;;;;;;;26.50;14.25;;;;;;;-1.17;98.38;102282.53;4909404;29;20051;-70
2021/03/07 01:52:21;;;;;;;23.20;13.63;;;;;;;-1.18;98.64;102279.03;4910804;29;20490;-70
2021/03/07 01:54:47;;;;;;;21.52;12.27;;;;;;;-1.22;99.18;102274.56;4907778;29;20028;-70
2021/03/07 01:57:16;;;;;;;23.95;12.40;;;;;;;-1.23;99.42;102272.81;4911535;29;20070;-70
2021/03/07 01:59:43;;;;;;;22.73;12.57;;;;;;;-1.27;99.77;102273.66;4909621;29;20150;-70
2021/03/07 02:02:09;;;;;;;22.50;11.77;;;;;;;-1.29;99.90;102272.75;4911194;29;20450;-70
2021/03/07 02:04:34;;;;;;;22.02;11.82;;;;;;;-1.30;99.74;102271.00;4910646;29;20028;-70
2021/03/07 02:07:00;;;;;;;21.45;11.25;;;;;;;-1.32;99.67;102267.47;4910453;29;20067;-71
2021/03/07 02:09:27;;;;;;;27.42;12.10;;;;;;;-1.34;99.88;102269.19;4909471;29;20048;-70
2021/03/07 02:11:54;;;;;;;24.98;11.60;;;;;;;-1.37;99.83;102254.28;4909080;29;20031;-70
2021/03/07 02:14:19;;;;;;;24.10;12.18;;;;;;;-1.37;99.67;102250.75;4910962;29;20111;-70
2021/03/07 02:16:45;;;;;;;25.92;13.07;;;;;;;-1.41;99.66;102246.31;4914310;29;20032;-70
2021/03/07 02:19:14;;;;;;;24.33;12.30;;;;;;;-1.44;99.83;102256.81;4909402;29;20509;-70
2021/03/07 02:21:51;;;;;;;23.05;12.88;;;;;;;-1.47;99.88;102241.88;4910210;29;20560;-70
2021/03/07 02:24:17;;;;;;;22.02;11.98;;;;;;;-1.49;99.92;102242.75;4892387;29;20043;-70
2021/03/07 02:26:48;;;;;;;23.33;11.85;;;;;;;-1.50;99.91;102247.13;4892859;29;20522;-70
2021/03/07 02:29:15;;;;;;;24.17;12.65;;;;;;;-1.51;99.80;102249.72;4919850;29;20040;-70
2021/03/07 02:32:07;;;;;;;23.58;11.80;;;;;;;-1.54;99.76;102240.03;4890843;29;20043;-70
2021/03/07 02:34:36;;;;;;;19.73;11.63;;;;;;;-1.58;100.00;102240.88;4903824;29;20551;-70
2021/03/07 02:37:06;;;;;;;21.48;12.00;;;;;;;-1.59;99.94;102235.59;4917554;29;20040;-70
2021/03/07 02:39:35;;;;;;;26.17;11.82;;;;;;;-1.60;99.93;102236.50;4911891;29;20091;-71
2021/03/07 02:42:07;;;;;;;22.42;12.40;;;;;;;-1.61;99.98;102234.72;4910827;29;20052;-70
2021/03/07 02:44:35;;;;;;;26.55;13.18;;;;;;;-1.65;100.00;102231.16;4914086;29;20028;-70
2021/03/07 02:47:02;;;;;;;23.75;12.38;;;;;;;-1.65;100.00;102229.41;4911041;29;20052;-71
2021/03/07 02:49:30;;;;;;;30.60;12.98;;;;;;;-1.66;100.00;102234.66;4889397;29;20036;-71
2021/03/07 02:51:57;;;;;;;23.85;12.60;;;;;;;-1.68;100.00;102226.78;4909087;29;20067;-70
2021/03/07 02:54:24;;;;;;;25.15;13.10;;;;;;;-1.68;100.00;102223.25;4891809;29;20095;-71
2021/03/07 02:56:52;;;;;;;23.67;11.55;;;;;;;-1.70;100.00;102219.72;4909331;29;20503;-71
2021/03/07 02:59:20;;;;;;;24.48;13.13;;;;;;;-1.72;100.00;102224.06;4908487;29;20031;-71
2021/03/07 03:01:47;;;;;;;24.60;12.25;;;;;;;-1.73;100.00;102224.97;4909860;29;20098;-71
2021/03/07 03:04:13;;;;;;;23.42;12.63;;;;;;;-1.75;100.00;102214.41;4909584;29;20067;-70
2021/03/07 03:06:42;;;;;;;24.08;12.98;;;;;;;-1.77;100.00;102221.41;4892199;29;20483;-71
2021/03/07 03:09:10;;;;;;;27.23;13.85;;;;;;;-1.79;100.00;102222.28;4910154;29;20056;-70
2021/03/07 03:11:39;;;;;;;33.08;14.38;;;;;;;-1.82;100.00;102217.84;4909623;29;20337;-70
2021/03/07 03:14:06;;;;;;;30.30;14.10;;;;;;;-1.84;100.00;102210.78;4909507;29;20487;-70
2021/03/07 03:16:33;;;;;;;25.88;13.30;;;;;;;-1.87;100.00;102209.03;4909093;29;20099;-70
2021/03/07 03:19:04;;;;;;;24.38;13.35;;;;;;;-1.89;100.00;102208.13;4908302;29;20099;-71
2021/03/07 03:21:30;;;;;;;23.50;13.13;;;;;;;-1.92;100.00;102204.59;4907459;29;20143;-70
2021/03/07 03:23:56;;;;;;;25.40;12.77;;;;;;;-1.93;100.00;102213.34;4910403;29;20083;-73
2021/03/07 03:26:23;;;;;;;22.48;12.98;;;;;;;-1.96;100.00;102208.91;4908633;29;20032;-71
2021/03/07 03:28:51;;;;;;;22.15;12.93;;;;;;;-1.97;100.00;102206.25;4894112;29;20028;-70
2021/03/07 03:31:17;;;;;;;23.50;12.82;;;;;;;-2.00;100.00;102201.88;4911503;29;20423;-71
2021/03/07 03:33:42;;;;;;;23.30;13.05;;;;;;;-2.00;100.00;102203.59;4912114;29;20031;-72
2021/03/07 03:36:08;;;;;;;26.02;13.57;;;;;;;-2.01;100.00;102199.22;4914461;29;20090;-70
2021/03/07 03:38:55;;;;;;;27.30;14.07;;;;;;;-2.01;100.00;102207.09;4915169;29;20047;-70
2021/03/07 03:41:24;;;;;;;26.05;14.48;;;;;;;-2.05;100.00;102199.19;4914823;29;20040;-70
2021/03/07 03:43:53;;;;;;;24.83;13.38;;;;;;;-2.07;100.00;102192.13;4898866;29;20115;-71
2021/03/07 03:46:20;;;;;;;29.35;14.55;;;;;;;-2.08;100.00;102190.38;4914966;29;20044;-71
2021/03/07 03:48:51;;;;;;;33.00;15.13;;;;;;;-2.10;100.00;102187.72;4913837;29;20028;-71
2021/03/07 03:51:19;;;;;;;30.85;16.40;;;;;;;-2.09;100.00;102185.97;4914673;29;20036;-70
2021/03/07 03:53:45;;;;;;;27.25;15.65;;;;;;;-2.11;100.00;102185.09;4916436;29;20074;-72
2021/03/07 03:56:12;;;;;;;33.72;16.23;;;;;;;-2.13;100.00;102187.69;4912987;29;20040;-72
2021/03/07 03:58:40;;;;;;;25.60;14.82;;;;;;;-2.15;100.00;102188.53;4913082;29;20038;-70
2021/03/07 04:01:07;;;;;;;32.17;15.48;;;;;;;-2.17;100.00;102185.03;4913029;29;20036;-70
2021/03/07 04:03:35;;;;;;;30.98;15.00;;;;;;;-2.20;100.00;102191.13;4902740;29;20036;-71
2021/03/07 04:06:00;;;;;;;25.75;15.18;;;;;;;-2.21;100.00;102188.47;4913440;29;20495;-71
2021/03/07 04:08:28;;;;;;;33.17;15.07;;;;;;;-2.22;100.00;102184.94;4911695;29;20040;-70
2021/03/07 04:10:56;;;;;;;32.92;14.93;;;;;;;-2.25;100.00;102186.66;4913492;29;20102;-71
2021/03/07 04:13:28;;;;;;;35.42;15.88;;;;;;;-2.26;100.00;102188.41;4909559;29;20091;-71
2021/03/07 04:15:55;;;;;;;30.52;14.50;;;;;;;-2.27;100.00;102177.88;4913415;29;20040;-71
2021/03/07 04:18:27;;;;;;;33.08;16.08;;;;;;;-2.31;100.00;102184.84;4917747;29;20119;-72
2021/03/07 04:20:53;;;;;;;30.90;15.20;;;;;;;-2.36;100.00;102176.03;4908877;29;20032;-70
2021/03/07 04:23:19;;;;;;;33.15;15.48;;;;;;;-2.37;100.00;102178.63;4920943;29;20072;-71
2021/03/07 04:25:45;;;;;;;26.58;14.63;;;;;;;-2.40;100.00;102179.47;4913564;29;20062;-71
2021/03/07 04:28:11;;;;;;;30.65;15.05;;;;;;;-2.40;100.00;102178.59;4922181;29;20031;-71
2021/03/07 04:30:38;;;;;;;27.23;14.45;;;;;;;-2.40;100.00;102173.31;4912516;29;20065;-71
2021/03/07 04:33:06;;;;;;;30.27;14.75;;;;;;;-2.40;100.00;102173.31;4913336;29;20407;-71
2021/03/07 04:35:32;;;;;;;30.17;14.55;;;;;;;-2.42;100.00;102180.34;4912483;29;20582;-72
2021/03/07 04:38:00;;;;;;;24.83;14.68;;;;;;;-2.45;100.00;102179.44;4914514;29;20060;-72
2021/03/07 04:40:27;;;;;;;26.38;14.50;;;;;;;-2.47;100.00;102178.50;4912955;29;20503;-70
2021/03/07 04:42:53;;;;;;;30.02;14.88;;;;;;;-2.51;100.00;102171.47;4901311;29;20070;-71
2021/03/07 04:45:19;;;;;;;28.92;16.00;;;;;;;-2.52;100.00;102168.81;4912842;29;20123;-72
2021/03/07 04:47:44;;;;;;;31.95;16.23;;;;;;;-2.56;100.00;102170.53;4913426;29;20118;-72
2021/03/07 04:50:11;;;;;;;32.10;16.25;;;;;;;-2.59;100.00;102170.47;4910773;29;20194;-71
2021/03/07 04:52:37;;;;;;;35.25;15.43;;;;;;;-2.64;100.00;102166.03;4912426;29;20032;-71
2021/03/07 04:55:04;;;;;;;30.90;15.85;;;;;;;-2.66;100.00;102162.53;4911183;29;20046;-70
2021/03/07 04:57:30;;;;;;;34.63;16.98;;;;;;;-2.71;100.00;102157.19;4916479;29;20037;-71
2021/03/07 04:59:55;;;;;;;32.35;16.17;;;;;;;-2.73;100.00;102161.56;4918376;29;20027;-71
2021/03/07 05:02:21;;;;;;;34.22;16.13;;;;;;;-2.76;100.00;102160.63;4914866;29;20561;-71
2021/03/07 05:04:46;;;;;;;30.08;15.32;;;;;;;-2.80;100.00;102151.81;4913844;29;20028;-70
2021/03/07 05:07:12;;;;;;;29.42;15.02;;;;;;;-2.81;100.00;102155.31;4911639;29;20547;-71
2021/03/07 05:09:37;;;;;;;40.65;17.85;;;;;;;-2.82;100.00;102143.03;4893507;29;20122;-71
2021/03/07 05:12:03;;;;;;;44.10;18.23;;;;;;;-2.84;100.00;102152.66;4917764;29;20059;-70
2021/03/07 05:14:28;;;;;;;47.45;19.55;;;;;;;-2.85;100.00;102148.25;4912986;29;20047;-71
2021/03/07 05:16:54;;;;;;;38.80;18.63;;;;;;;-2.87;100.00;102139.47;4894406;29;20043;-71
2021/03/07 05:19:19;;;;;;;41.40;19.13;;;;;;;-2.87;100.00;102136.84;4910854;29;20052;-70
2021/03/07 05:21:45;;;;;;;33.72;18.77;;;;;;;-2.88;100.00;102140.31;4900269;29;20277;-70
2021/03/07 05:24:10;;;;;;;31.67;16.05;;;;;;;-2.87;100.00;102134.22;4910570;29;20035;-71
2021/03/07 05:26:36;;;;;;;25.05;15.30;;;;;;;-2.88;100.00;102132.44;4912353;29;20040;-70
2021/03/07 05:29:01;;;;;;;32.83;15.18;;;;;;;-2.87;100.00;102131.59;4909907;29;20094;-71
2021/03/07 05:31:27;;;;;;;30.38;17.10;;;;;;;-2.86;100.00;102142.13;4894189;29;20046;-70
2021/03/07 05:33:52;;;;;;;28.35;15.45;;;;;;;-2.87;100.00;102144.72;4910533;29;20078;-71
2021/03/07 05:36:18;;;;;;;33.42;15.02;;;;;;;-2.88;100.00;102140.31;4896329;29;20068;-70
2021/03/07 05:38:43;;;;;;;29.52;16.67;;;;;;;-2.90;100.00;102134.19;4897162;29;20024;-70
2021/03/07 05:41:11;;;;;;;39.17;17.42;;;;;;;-2.91;100.00;102132.41;4894802;29;20055;-72
2021/03/07 05:43:38;;;;;;;32.50;17.42;;;;;;;-2.92;100.00;102133.28;4911113;29;20036;-71
2021/03/07 05:46:03;;;;;;;33.10;16.95;;;;;;;-2.94;100.00;102134.97;4912257;29;20394;-71
2021/03/07 05:48:29;;;;;;;30.95;16.40;;;;;;;-2.95;100.00;102141.09;4894779;29;20031;-73
2021/03/07 05:50:55;;;;;;;34.72;17.67;;;;;;;-2.95;100.00;102144.59;4900599;29;20451;-71
2021/03/07 05:53:21;;;;;;;28.88;16.40;;;;;;;-2.97;100.00;102142.84;4910846;29;20028;-71
2021/03/07 05:55:47;;;;;;;35.42;17.30;;;;;;;-2.97;100.00;102137.59;4911024;29;20419;-70
2021/03/07 05:58:13;;;;;;;35.65;18.05;;;;;;;-3.00;100.00;102138.41;4912432;29;20081;-71
2021/03/07 06:00:39;;;;;;;36.53;17.05;;;;;;;-3.01;100.00;102125.25;4919497;29;20425;-71
2021/03/07 06:03:05;;;;;;;30.63;16.15;;;;;;;-3.02;100.00;102134.00;4906851;29;20480;-71
2021/03/07 06:05:33;;;;;;;29.15;16.73;;;;;;;-3.01;100.00;102131.41;4910762;29;20106;-71
2021/03/07 06:07:58;;;;;;;36.95;17.67;;;;;;;-3.01;100.00;102135.75;4892625;29;20043;-71
2021/03/07 06:10:27;;;;;;;31.38;17.17;;;;;;;-3.03;100.00;102135.75;4914662;29;20044;-71
2021/03/07 06:13:02;;;;;;;35.13;17.73;;;;;;;-3.03;100.00;102132.25;4906338;29;20035;-71
2021/03/07 06:15:28;;;;;;;32.38;16.27;;;;;;;-3.04;100.00;102130.47;4877935;29;20126;-72
2021/03/07 06:17:54;;;;;;;32.17;16.83;;;;;;;-3.03;100.00;102127.00;4907295;29;20084;-70
2021/03/07 06:20:28;;;;;;;35.60;18.73;;;;;;;-3.02;100.00;102134.00;4907041;29;20309;-70
2021/03/07 06:23:00;;;;;;;34.60;17.90;;;;;;;-3.02;100.00;102134.00;4916786;29;20036;-71
2021/03/07 06:25:29;;;;;;;42.05;18.27;;;;;;;-3.01;100.00;102127.88;4911195;29;20032;-71
2021/03/07 06:27:55;;;;;;;37.95;17.67;;;;;;;-3.00;100.00;102124.41;4916954;29;20046;-71
2021/03/07 06:30:26;;;;;;;31.88;16.92;;;;;;;-2.99;100.00;102129.69;4911001;29;20044;-71
2021/03/07 06:32:56;;;;;;;38.13;18.33;;;;;;;-3.00;100.00;102120.03;4915144;29;20368;-72
2021/03/07 06:35:27;;;;;;;33.15;17.85;;;;;;;-3.01;100.00;102126.13;4922242;29;20038;-71
2021/03/07 06:37:58;;;;;;;35.28;17.90;;;;;;;-2.99;100.00;102128.78;4921540;29;20044;-71
2021/03/07 06:40:28;;;;;;;39.97;18.20;;;;;;;-2.97;100.00;102121.81;4921892;29;20039;-71
2021/03/07 06:42:54;;;;;;;31.85;17.88;;;;;;;-2.96;100.00;102123.56;4893740;29;20510;-71
2021/03/07 06:45:20;;;;;;;27.58;15.95;;;;;;;-2.94;100.00;102127.09;4907954;29;20114;-71
2021/03/07 06:47:57;;;;;;;35.00;17.58;;;;;;;-2.91;100.00;102129.78;4911692;29;20566;-72
2021/03/07 06:50:23;;;;;;;38.38;18.23;;;;;;;-2.89;100.00;102123.66;4911379;29;20067;-71
2021/03/07 06:52:49;;;;;;;33.92;18.15;;;;;;;-2.84;100.00;102130.75;4897358;29;20078;-71
2021/03/07 06:55:15;;;;;;;32.85;17.92;;;;;;;-2.82;100.00;102127.25;4910857;29;20131;-71
2021/03/07 06:57:41;;;;;;;37.75;18.77;;;;;;;-2.81;100.00;102129.03;4909965;29;20324;-71
2021/03/07 07:00:08;;;;;;;41.88;19.55;;;;;;;-2.79;100.00;102132.56;4908382;29;20036;-71
2021/03/07 07:02:33;;;;;;;38.28;18.65;;;;;;;-2.75;100.00;102133.47;4911248;29;20082;-71
2021/03/07 07:04:59;;;;;;;44.42;22.08;;;;;;;-2.66;100.00;102134.50;4892580;29;20475;-70
2021/03/07 07:07:25;;;;;;;42.38;19.73;;;;;;;-2.49;100.00;102132.06;4910242;29;20091;-71
2021/03/07 07:10:03;;;;;;;39.25;20.23;;;;;;;-2.22;100.00;102136.75;4915259;29;20050;-71
2021/03/07 07:12:29;;;;;;;35.60;20.08;;;;;;;-1.81;100.00;102134.50;4912524;29;20032;-71
2021/03/07 07:15:06;;;;;;;35.25;21.00;;;;;;;-1.33;100.00;102141.91;4909760;29;20050;-71
2021/03/07 07:17:32;;;;;;;40.08;20.27;;;;;;;-0.84;100.00;102136.06;4914686;29;20091;-71
2021/03/07 07:19:58;;;;;;;38.67;19.75;;;;;;;-0.31;100.00;102138.03;4892959;29;20076;-71
2021/03/07 07:22:23;;;;;;;38.85;18.73;;;;;;;0.17;100.00;102142.53;4910135;29;20047;-71
2021/03/07 07:24:49;;;;;;;40.25;20.00;;;;;;;0.66;100.00;102143.41;4912029;29;20027;-71
2021/03/07 07:27:15;;;;;;;31.25;18.10;;;;;;;1.13;97.82;102151.22;4910050;29;20150;-71
2021/03/07 07:29:40;;;;;;;33.78;17.02;;;;;;;1.57;96.36;102143.13;4906126;29;20111;-71
2021/03/07 07:32:15;;;;;;;33.55;16.88;;;;;;;2.01;94.51;102142.00;4908828;29;20428;-71
2021/03/07 07:35:20;;;;;;;28.70;15.10;;;;;;;2.50;91.54;102141.63;4893275;29;20513;-71
2021/03/07 07:37:52;;;;;;;25.65;14.30;;;;;;;2.88;89.28;102131.56;4865663;29;20068;-71
2021/03/07 07:40:19;;;;;;;26.02;15.45;;;;;;;3.20;87.51;102140.06;4887494;29;20048;-71
2021/03/07 07:42:58;;;;;;;28.70;14.75;;;;;;;3.52;85.06;102136.13;4907102;29;20051;-71
2021/03/07 07:45:24;;;;;;;32.03;14.98;;;;;;;3.81;84.53;102131.31;4907526;29;20055;-71
2021/03/07 07:47:56;;;;;;;28.02;15.20;;;;;;;4.14;83.71;102131.69;4909703;29;20024;-71
2021/03/07 07:50:27;;;;;;;27.50;14.10;;;;;;;4.38;81.69;102134.00;4909965;29;20047;-71
2021/03/07 07:52:53;;;;;;;24.38;13.20;;;;;;;4.50;80.67;102136.47;4911136;29;20043;-71
2021/03/07 07:55:18;;;;;;;22.45;13.05;;;;;;;4.72;79.27;102132.53;4909399;29;20588;-71
2021/03/07 07:57:47;;;;;;;26.05;13.57;;;;;;;4.83;77.26;102130.53;4911133;29;20052;-71
2021/03/07 08:00:19;;;;;;;25.10;13.77;;;;;;;4.97;77.29;102132.94;4892560;29;20681;-71
2021/03/07 08:02:50;;;;;;;31.02;16.67;;;;;;;5.18;76.52;102137.00;4908582;29;20040;-71
2021/03/07 08:05:21;;;;;;;24.40;14.10;;;;;;;5.36;75.43;102130.44;4909363;29;20122;-71
2021/03/07 08:08:09;;;;;;;26.80;13.68;;;;;;;5.59;73.69;102137.03;4891757;29;20044;-71
2021/03/07 08:10:40;;;;;;;24.92;13.15;;;;;;;5.74;74.77;102137.63;4909065;29;20059;-71
2021/03/07 08:13:14;;;;;;;27.38;14.55;;;;;;;5.80;73.93;102132.16;4879080;29;20598;-71
2021/03/07 08:15:41;;;;;;;24.67;13.65;;;;;;;6.04;73.54;102137.84;4909603;29;20293;-71
2021/03/07 08:18:06;;;;;;;20.80;12.90;;;;;;;6.20;72.02;102135.69;4911583;29;20036;-71
2021/03/07 08:20:37;;;;;;;25.60;13.18;;;;;;;6.36;70.53;102139.72;4914051;29;20040;-71
2021/03/07 08:23:07;;;;;;;21.40;12.98;;;;;;;6.50;69.52;102128.72;4910689;29;20095;-71
2021/03/07 08:25:44;;;;;;;24.52;13.40;;;;;;;6.67;69.20;102128.28;4913121;29;20047;-71
2021/03/07 08:28:31;;;;;;;29.60;13.30;;;;;;;6.81;68.61;102126.16;4907581;29;20063;-71
2021/03/07 08:31:08;;;;;;;27.98;13.90;;;;;;;7.12;66.68;102126.19;4909376;29;20451;-71
2021/03/07 08:33:38;;;;;;;23.92;11.52;;;;;;;7.21;64.04;102121.50;4911480;29;20036;-71
2021/03/07 08:36:17;;;;;;;21.58;11.52;;;;;;;7.31;64.07;102120.31;4911809;29;20036;-71
2021/03/07 08:38:48;;;;;;;21.98;11.82;;;;;;;7.54;64.38;102121.41;4910234;29;20039;-71
2021/03/07 08:41:16;;;;;;;19.60;11.65;;;;;;;7.71;63.20;102125.34;4914184;29;20044;-71
2021/03/07 08:43:43;;;;;;;22.10;11.63;;;;;;;7.97;61.67;102127.22;4909943;29;20559;-71
2021/03/07 08:46:11;;;;;;;16.75;10.20;;;;;;;8.03;59.63;102124.34;4911960;29;20395;-71
2021/03/07 08:48:40;;;;;;;18.35;9.68;;;;;;;7.91;60.02;102119.38;4912727;29;20036;-71
2021/03/07 08:51:06;;;;;;;16.50;9.82;;;;;;;7.85;58.39;102129.41;4912576;29;20028;-71
2021/03/07 08:53:35;;;;;;;22.02;10.05;;;;;;;7.83;60.25;102124.13;4912465;29;20121;-71
2021/03/07 08:56:01;;;;;;;20.95;9.90;;;;;;;8.00;57.49;102118.25;4913322;29;20039;-71
2021/03/07 08:58:27;;;;;;;20.23;10.18;;;;;;;8.05;56.96;102122.50;4911667;29;20036;-71
2021/03/07 09:00:55;;;;;;;25.27;14.07;;;;;;;8.00;58.75;102116.44;4911397;29;20039;-71
2021/03/07 09:03:23;;;;;;;19.15;9.55;;;;;;;8.26;56.55;102120.09;4911878;29;20040;-71
2021/03/07 09:05:49;;;;;;;21.30;10.75;;;;;;;8.17;58.57;102115.91;4912171;29;20040;-71
2021/03/07 09:08:15;;;;;;;20.08;10.13;;;;;;;8.24;57.60;102116.56;4910432;29;20032;-71
2021/03/07 09:10:44;;;;;;;19.83;9.32;;;;;;;8.12;53.60;102118.72;4912606;29;20044;-71
2021/03/07 09:13:15;;;;;;;20.25;10.52;;;;;;;8.23;52.19;102115.69;4912612;29;20024;-71
2021/03/07 09:15:51;;;;;;;21.35;9.25;;;;;;;8.05;53.39;102118.97;4912381;29;20032;-71
2021/03/07 09:18:17;;;;;;;16.77;8.82;;;;;;;7.90;54.86;102114.97;4910144;29;20043;-71
2021/03/07 09:20:49;;;;;;;18.20;9.40;;;;;;;7.87;56.06;102107.06;4912829;29;20106;-71
2021/03/07 09:23:35;;;;;;;16.57;9.13;;;;;;;7.57;57.40;102102.63;4908351;29;20411;-71
2021/03/07 09:26:10;;;;;;;18.73;9.35;;;;;;;7.52;59.07;102105.47;4907568;29;20032;-71
2021/03/07 09:28:49;;;;;;;20.75;10.13;;;;;;;7.41;60.27;102102.19;4913374;29;20066;-71
2021/03/07 09:31:19;;;;;;;14.90;9.77;;;;;;;7.19;61.20;102101.97;4908779;29;20128;-71
2021/03/07 09:33:54;;;;;;;20.42;10.45;;;;;;;7.23;61.77;102092.03;4893800;29;20040;-71
2021/03/07 09:36:22;;;;;;;19.58;9.82;;;;;;;7.27;61.89;102091.94;4910827;29;20036;-71
2021/03/07 09:38:59;;;;;;;19.58;10.50;;;;;;;7.16;62.38;102086.00;4910207;29;20506;-71
2021/03/07 09:41:33;;;;;;;19.25;10.88;;;;;;;6.94;64.36;102084.00;4893290;29;20044;-71
2021/03/07 09:44:01;;;;;;;25.55;13.55;;;;;;;6.78;65.81;102080.88;4911419;29;20099;-71
2021/03/07 09:46:28;;;;;;;17.63;11.40;;;;;;;6.79;67.16;102085.25;4909441;29;20276;-71
2021/03/07 09:49:02;;;;;;;24.30;12.40;;;;;;;6.75;67.88;102094.28;4909557;29;20028;-71
2021/03/07 09:51:39;;;;;;;20.48;11.68;;;;;;;6.66;67.85;102086.53;4910227;29;20415;-71
2021/03/07 09:54:12;;;;;;;25.17;11.60;;;;;;;6.09;69.53;102095.06;4921812;29;20032;-71
2021/03/07 09:56:39;;;;;;;26.95;11.00;;;;;;;5.95;70.79;102090.06;4919047;29;20050;-71
2021/03/07 09:59:13;;;;;;;24.02;11.63;;;;;;;6.07;71.70;102083.56;4916119;29;20411;-71
2021/03/07 10:02:03;;;;;;;18.35;10.73;;;;;;;6.07;71.55;102083.56;4912564;29;20040;-71
2021/03/07 10:04:36;;;;;;;22.05;12.32;;;;;;;6.10;72.37;102088.84;4913806;29;20068;-71
2021/03/07 10:07:11;;;;;;;23.83;12.80;;;;;;;6.22;71.54;102082.34;4923160;29;20031;-71
2021/03/07 10:10:06;;;;;;;24.88;12.27;;;;;;;6.32;72.01;102075.84;4913009;29;20035;-71
2021/03/07 10:12:38;;;;;;;28.42;13.00;;;;;;;6.46;70.77;102082.59;4897551;29;20036;-71
2021/03/07 10:15:04;;;;;;;20.95;12.75;;;;;;;6.39;71.41;102075.66;4908962;29;20071;-71
2021/03/07 10:17:38;;;;;;;31.17;13.88;;;;;;;6.33;71.68;102081.16;4909319;29;20483;-71
2021/03/07 10:20:05;;;;;;;28.75;15.35;;;;;;;6.36;72.63;102078.38;4909062;29;20126;-71
2021/03/07 10:22:57;;;;;;;30.98;15.13;;;;;;;6.57;72.59;102068.97;4912795;29;20048;-71
2021/03/07 10:25:29;;;;;;;28.73;16.40;;;;;;;6.68;70.99;102079.34;4908989;29;20062;-71
2021/03/07 10:27:55;;;;;;;27.40;14.80;;;;;;;6.52;70.55;102076.22;4905543;29;20035;-71
2021/03/07 10:30:30;;;;;;;37.10;16.88;;;;;;;6.73;71.61;102069.41;4893233;29;20048;-71
2021/03/07 10:33:12;;;;;;;33.78;17.85;;;;;;;6.79;71.34;102077.25;4911697;29;20434;-71
2021/03/07 10:35:39;;;;;;;34.35;15.57;;;;;;;6.78;71.23;102070.19;4885189;29;20044;-72
2021/03/07 10:38:17;;;;;;;31.80;15.13;;;;;;;6.71;70.88;102071.28;4913729;29;20047;-71
2021/03/07 10:40:43;;;;;;;24.63;12.93;;;;;;;6.37;71.24;102071.25;4909209;29;20032;-71
2021/03/07 10:43:08;;;;;;;22.70;11.85;;;;;;;6.32;70.41;102062.50;4892383;29;20039;-72
2021/03/07 10:45:39;;;;;;;20.48;10.80;;;;;;;6.58;68.65;102059.19;4894613;29;20483;-71
2021/03/07 10:48:07;;;;;;;19.17;9.57;;;;;;;6.72;67.28;102063.25;4891583;29;20039;-71
2021/03/07 10:50:34;;;;;;;16.30;9.60;;;;;;;6.95;68.22;102053.72;4924809;29;20143;-71
2021/03/07 10:53:00;;;;;;;15.93;10.40;;;;;;;7.24;64.85;102057.28;4922677;29;20538;-71
2021/03/07 10:55:27;;;;;;;16.02;9.70;;;;;;;7.19;61.97;102064.56;4919177;29;20593;-71
2021/03/07 10:57:53;;;;;;;21.25;9.95;;;;;;;7.41;63.28;102055.91;4910199;29;20111;-71
2021/03/07 11:00:20;;;;;;;24.42;13.23;;;;;;;7.47;65.85;102047.75;4910951;29;20554;-72
2021/03/07 11:02:46;;;;;;;27.60;14.88;;;;;;;7.23;66.14;102054.66;4911082;29;20443;-72
2021/03/07 11:05:14;;;;;;;20.88;12.13;;;;;;;7.09;67.36;102051.53;4908935;29;20043;-72
2021/03/07 11:07:40;;;;;;;20.42;11.65;;;;;;;6.91;61.85;102052.94;4909923;29;20035;-71
2021/03/07 11:10:08;;;;;;;18.50;11.40;;;;;;;6.72;62.78;102052.56;4908377;29;20051;-71
2021/03/07 11:12:35;;;;;;;24.30;12.65;;;;;;;6.73;61.56;102048.06;4920503;29;20067;-71
2021/03/07 11:15:02;;;;;;;22.23;12.85;;;;;;;6.83;62.75;102046.94;4892240;29;20676;-71
2021/03/07 11:17:28;;;;;;;16.98;11.25;;;;;;;7.03;60.84;102044.59;4909964;29;20055;-71